sensor_id;sensor_type;location;lat;lon;timestamp;pressure;altitude;pressure_sealevel;temperature;humidity
37892;BME280;45797;47.466;9.486;2023-02-14T00:03:28;97651.78;;;4.64;69.18
37892;BME280;45797;47.466;9.486;2023-02-14T00:08:29;97646.59;;;4.65;69.15
37892;BME280;45797;47.466;9.486;2023-02-14T00:13:31;97641.38;;;4.67;69.30
37892;BME280;45797;47.466;9.486;2023-02-14T00:18:33;97648.31;;;4.66;69.34
37892;BME280;45797;47.466;9.486;2023-02-14T00:23:53;97647.41;;;4.67;69.09
37892;BME280;45797;47.466;9.486;2023-02-14T00:29:04;97642.25;;;4.66;68.58
37892;BME280;45797;47.466;9.486;2023-02-14T00:34:06;97641.34;;;4.68;69.22
37892;BME280;45797;47.466;9.486;2023-02-14T00:39:09;97635.25;;;4.69;69.27
37892;BME280;45797;47.466;9.486;2023-02-14T00:44:13;97628.31;;;4.70;68.61
37892;BME280;45797;47.466;9.486;2023-02-14T00:49:14;97627.53;;;4.66;69.08
37892;BME280;45797;47.466;9.486;2023-02-14T00:54:33;97631.97;;;4.59;69.25
37892;BME280;45797;47.466;9.486;2023-02-14T00:59:33;97637.13;;;4.61;69.69
37892;BME280;45797;47.466;9.486;2023-02-14T01:04:35;97627.56;;;4.65;69.12
37892;BME280;45797;47.466;9.486;2023-02-14T01:09:37;97633.63;;;4.64;69.19
37892;BME280;45797;47.466;9.486;2023-02-14T01:14:40;97630.25;;;4.60;69.11
37892;BME280;45797;47.466;9.486;2023-02-14T01:19:46;97627.72;;;4.57;69.63
37892;BME280;45797;47.466;9.486;2023-02-14T01:24:49;97628.63;;;4.53;69.21
37892;BME280;45797;47.466;9.486;2023-02-14T01:29:49;97637.31;;;4.52;69.33
37892;BME280;45797;47.466;9.486;2023-02-14T01:34:52;97632.16;;;4.50;69.77
37892;BME280;45797;47.466;9.486;2023-02-14T01:39:55;97633.03;;;4.49;69.82
37892;BME280;45797;47.466;9.486;2023-02-14T01:45:04;97627.00;;;4.49;69.32
37892;BME280;45797;47.466;9.486;2023-02-14T01:50:12;97621.84;;;4.47;69.50
37892;BME280;45797;47.466;9.486;2023-02-14T01:55:19;97617.50;;;4.48;69.36
37892;BME280;45797;47.466;9.486;2023-02-14T02:00:27;97619.22;;;4.49;69.77
37892;BME280;45797;47.466;9.486;2023-02-14T02:06:00;97615.03;;;4.40;69.70
37892;BME280;45797;47.466;9.486;2023-02-14T02:11:09;97602.03;;;4.42;69.53
37892;BME280;45797;47.466;9.486;2023-02-14T02:16:24;97595.91;;;4.47;69.55
37892;BME280;45797;47.466;9.486;2023-02-14T02:48:12;97577.53;;;4.58;69.62
37892;BME280;45797;47.466;9.486;2023-02-14T02:53:38;97576.84;;;4.48;69.40
37892;BME280;45797;47.466;9.486;2023-02-14T02:59:04;97576.88;;;4.45;70.02
37892;BME280;45797;47.466;9.486;2023-02-14T03:04:16;97568.25;;;4.46;70.07
37892;BME280;45797;47.466;9.486;2023-02-14T03:15:02;97576.09;;;4.42;70.17
37892;BME280;45797;47.466;9.486;2023-02-14T03:20:20;97582.28;;;4.35;70.40
37892;BME280;45797;47.466;9.486;2023-02-14T03:25:40;97580.56;;;4.34;70.15
37892;BME280;45797;47.466;9.486;2023-02-14T03:31:07;97581.53;;;4.29;70.47
37892;BME280;45797;47.466;9.486;2023-02-14T03:42:06;97581.47;;;4.33;70.14
37892;BME280;45797;47.466;9.486;2023-02-14T03:47:13;97579.72;;;4.33;70.25
37892;BME280;45797;47.466;9.486;2023-02-14T03:52:14;97584.09;;;4.31;69.91
37892;BME280;45797;47.466;9.486;2023-02-14T03:57:29;97598.00;;;4.27;69.98
37892;BME280;45797;47.466;9.486;2023-02-14T04:02:53;97596.31;;;4.23;69.92
37892;BME280;45797;47.466;9.486;2023-02-14T04:07:57;97606.69;;;4.23;70.65
37892;BME280;45797;47.466;9.486;2023-02-14T04:12:59;97609.38;;;4.18;70.89
37892;BME280;45797;47.466;9.486;2023-02-14T04:18:11;97614.66;;;4.12;70.42
37892;BME280;45797;47.466;9.486;2023-02-14T04:23:30;97607.75;;;4.13;70.61
37892;BME280;45797;47.466;9.486;2023-02-14T04:28:37;97600.75;;;4.16;70.20
37892;BME280;45797;47.466;9.486;2023-02-14T04:33:38;97595.63;;;4.13;70.23
37892;BME280;45797;47.466;9.486;2023-02-14T04:38:40;97588.75;;;4.12;70.64
37892;BME280;45797;47.466;9.486;2023-02-14T04:43:43;97590.53;;;4.07;70.65
37892;BME280;45797;47.466;9.486;2023-02-14T04:48:44;97584.56;;;4.04;70.78
37892;BME280;45797;47.466;9.486;2023-02-14T04:53:46;97581.91;;;4.07;70.62
37892;BME280;45797;47.466;9.486;2023-02-14T04:58:48;97587.13;;;4.05;70.46
37892;BME280;45797;47.466;9.486;2023-02-14T05:03:50;97590.59;;;4.04;70.19
37892;BME280;45797;47.466;9.486;2023-02-14T05:08:52;97578.59;;;4.00;70.44
37892;BME280;45797;47.466;9.486;2023-02-14T05:13:55;97572.59;;;3.98;70.64
37892;BME280;45797;47.466;9.486;2023-02-14T05:18:55;97570.94;;;3.92;70.49
37892;BME280;45797;47.466;9.486;2023-02-14T05:23:58;97562.28;;;3.93;70.56
37892;BME280;45797;47.466;9.486;2023-02-14T05:29:08;97565.75;;;3.92;70.53
37892;BME280;45797;47.466;9.486;2023-02-14T05:34:10;97567.41;;;3.96;70.62
37892;BME280;45797;47.466;9.486;2023-02-14T05:39:12;97575.19;;;3.98;70.71
37892;BME280;45797;47.466;9.486;2023-02-14T05:44:15;97575.06;;;4.04;70.32
37892;BME280;45797;47.466;9.486;2023-02-14T05:49:16;97572.50;;;4.03;71.08
37892;BME280;45797;47.466;9.486;2023-02-14T05:54:16;97583.72;;;4.03;70.34
37892;BME280;45797;47.466;9.486;2023-02-14T05:59:17;97598.34;;;4.06;70.46
37892;BME280;45797;47.466;9.486;2023-02-14T06:04:19;97600.88;;;4.10;70.26
37892;BME280;45797;47.466;9.486;2023-02-14T06:09:31;97601.88;;;4.01;70.18
37892;BME280;45797;47.466;9.486;2023-02-14T06:14:32;97603.09;;;3.81;71.19
37892;BME280;45797;47.466;9.486;2023-02-14T06:19:35;97611.03;;;3.68;71.38
37892;BME280;45797;47.466;9.486;2023-02-14T06:24:35;97617.88;;;3.74;71.43
37892;BME280;45797;47.466;9.486;2023-02-14T06:29:36;97615.19;;;3.80;71.05
37892;BME280;45797;47.466;9.486;2023-02-14T06:34:42;97622.88;;;3.85;71.02
37892;BME280;45797;47.466;9.486;2023-02-14T06:39:44;97628.81;;;3.93;71.07
37892;BME280;45797;47.466;9.486;2023-02-14T06:44:45;97629.56;;;4.01;70.72
37892;BME280;45797;47.466;9.486;2023-02-14T06:49:48;97629.44;;;4.09;70.73
37892;BME280;45797;47.466;9.486;2023-02-14T06:54:49;97633.69;;;4.11;70.47
37892;BME280;45797;47.466;9.486;2023-02-14T06:59:54;97641.38;;;4.16;70.40
37892;BME280;45797;47.466;9.486;2023-02-14T07:04:54;97637.91;;;4.17;70.50
37892;BME280;45797;47.466;9.486;2023-02-14T07:09:56;97636.06;;;4.23;70.47
37892;BME280;45797;47.466;9.486;2023-02-14T07:14:58;97630.84;;;4.25;70.81
37892;BME280;45797;47.466;9.486;2023-02-14T07:19:58;97636.06;;;4.23;70.76
37892;BME280;45797;47.466;9.486;2023-02-14T07:24:58;97637.75;;;4.27;70.42
37892;BME280;45797;47.466;9.486;2023-02-14T07:30:03;97634.16;;;4.35;70.02
37892;BME280;45797;47.466;9.486;2023-02-14T07:35:06;97640.16;;;4.38;70.00
37892;BME280;45797;47.466;9.486;2023-02-14T07:40:07;97621.97;;;4.40;69.74
37892;BME280;45797;47.466;9.486;2023-02-14T07:45:09;97629.66;;;4.44;70.19
37892;BME280;45797;47.466;9.486;2023-02-14T07:50:20;97634.91;;;4.41;70.28
37892;BME280;45797;47.466;9.486;2023-02-14T07:55:21;97628.75;;;4.45;70.13
37892;BME280;45797;47.466;9.486;2023-02-14T08:00:26;97622.50;;;4.58;70.01
37892;BME280;45797;47.466;9.486;2023-02-14T08:05:34;97611.16;;;4.63;69.83
37892;BME280;45797;47.466;9.486;2023-02-14T08:10:35;97620.63;;;4.67;69.74
37892;BME280;45797;47.466;9.486;2023-02-14T08:15:37;97615.78;;;4.45;70.35
37892;BME280;45797;47.466;9.486;2023-02-14T08:20:56;97611.56;;;4.41;70.06
37892;BME280;45797;47.466;9.486;2023-02-14T08:25:57;97613.41;;;4.35;70.77
37892;BME280;45797;47.466;9.486;2023-02-14T08:31:06;97609.91;;;4.36;70.26
37892;BME280;45797;47.466;9.486;2023-02-14T08:36:14;97604.72;;;4.37;70.27
37892;BME280;45797;47.466;9.486;2023-02-14T08:41:17;97598.56;;;4.43;70.44
37892;BME280;45797;47.466;9.486;2023-02-14T08:46:20;97601.56;;;4.68;70.19
37892;BME280;45797;47.466;9.486;2023-02-14T08:51:20;97593.34;;;4.89;69.75
37892;BME280;45797;47.466;9.486;2023-02-14T08:56:25;97587.84;;;5.04;69.69
37892;BME280;45797;47.466;9.486;2023-02-14T09:01:28;97588.47;;;5.15;69.68
37892;BME280;45797;47.466;9.486;2023-02-14T09:06:28;97592.50;;;5.29;69.14
37892;BME280;45797;47.466;9.486;2023-02-14T09:11:37;97589.94;;;5.27;69.20
37892;BME280;45797;47.466;9.486;2023-02-14T09:16:38;97595.72;;;5.40;69.95
37892;BME280;45797;47.466;9.486;2023-02-14T09:21:40;97590.09;;;5.58;68.76
37892;BME280;45797;47.466;9.486;2023-02-14T09:26:40;97587.13;;;5.75;68.50
37892;BME280;45797;47.466;9.486;2023-02-14T09:31:44;97590.16;;;5.94;68.28
37892;BME280;45797;47.466;9.486;2023-02-14T09:36:45;97583.69;;;6.10;67.88
37892;BME280;45797;47.466;9.486;2023-02-14T09:46:58;97582.19;;;6.36;67.90
37892;BME280;45797;47.466;9.486;2023-02-14T09:52:03;97573.09;;;6.50;67.74
37892;BME280;45797;47.466;9.486;2023-02-14T10:13:04;97552.53;;;7.03;66.64
37892;BME280;45797;47.466;9.486;2023-02-14T10:23:53;97555.06;;;6.75;67.88
37892;BME280;45797;47.466;9.486;2023-02-14T10:28:56;97547.50;;;6.66;67.70
37892;BME280;45797;47.466;9.486;2023-02-14T10:34:21;97536.69;;;6.49;68.06
37892;BME280;45797;47.466;9.486;2023-02-14T10:50:33;97522.50;;;5.95;69.12
37892;BME280;45797;47.466;9.486;2023-02-14T10:55:53;97518.09;;;5.99;68.90
37892;BME280;45797;47.466;9.486;2023-02-14T11:01:22;97511.88;;;6.05;68.90
37892;BME280;45797;47.466;9.486;2023-02-14T11:06:29;97505.41;;;6.19;68.32
37892;BME280;45797;47.466;9.486;2023-02-14T11:11:42;97498.81;;;6.06;68.60
37892;BME280;45797;47.466;9.486;2023-02-14T11:16:45;97496.22;;;6.06;68.90
37892;BME280;45797;47.466;9.486;2023-02-14T11:21:47;97493.47;;;6.12;68.74
37892;BME280;45797;47.466;9.486;2023-02-14T11:26:53;97489.69;;;5.90;69.35
37892;BME280;45797;47.466;9.486;2023-02-14T11:31:56;97485.72;;;6.11;68.82
37892;BME280;45797;47.466;9.486;2023-02-14T11:37:27;97472.41;;;6.21;68.51
37892;BME280;45797;47.466;9.486;2023-02-14T11:42:46;97459.75;;;6.40;67.97
37892;BME280;45797;47.466;9.486;2023-02-14T11:53:10;97453.44;;;6.49;68.04
37892;BME280;45797;47.466;9.486;2023-02-14T11:58:48;97436.63;;;6.59;67.84
37892;BME280;45797;47.466;9.486;2023-02-14T12:03:53;97431.84;;;6.75;68.00
37892;BME280;45797;47.466;9.486;2023-02-14T12:14:27;97421.50;;;7.00;66.99
37892;BME280;45797;47.466;9.486;2023-02-14T12:19:45;97415.38;;;7.01;67.13
37892;BME280;45797;47.466;9.486;2023-02-14T12:24:58;97410.47;;;6.92;66.90
37892;BME280;45797;47.466;9.486;2023-02-14T12:30:11;97402.19;;;6.79;67.24
37892;BME280;45797;47.466;9.486;2023-02-14T12:41:33;97394.03;;;6.90;67.43
37892;BME280;45797;47.466;9.486;2023-02-14T12:57:51;97373.09;;;6.94;67.32
37892;BME280;45797;47.466;9.486;2023-02-14T13:08:24;97364.19;;;6.73;67.62
37892;BME280;45797;47.466;9.486;2023-02-14T13:13:58;97355.09;;;7.13;66.58
37892;BME280;45797;47.466;9.486;2023-02-14T13:19:12;97356.91;;;7.11;67.03
37892;BME280;45797;47.466;9.486;2023-02-14T13:29:21;97353.69;;;7.03;67.12
37892;BME280;45797;47.466;9.486;2023-02-14T13:39:39;97341.50;;;6.77;67.66
37892;BME280;45797;47.466;9.486;2023-02-14T13:44:47;97344.44;;;6.94;67.42
37892;BME280;45797;47.466;9.486;2023-02-14T13:49:50;97329.00;;;6.88;67.85
37892;BME280;45797;47.466;9.486;2023-02-14T13:55:00;97328.16;;;6.87;67.36
37892;BME280;45797;47.466;9.486;2023-02-14T14:10:54;97332.00;;;7.02;67.25
37892;BME280;45797;47.466;9.486;2023-02-14T14:21:39;97327.44;;;7.09;66.74
37892;BME280;45797;47.466;9.486;2023-02-14T14:26:48;97321.47;;;7.05;67.58
37892;BME280;45797;47.466;9.486;2023-02-14T14:31:56;97328.31;;;6.81;67.69
37892;BME280;45797;47.466;9.486;2023-02-14T14:37:14;97319.13;;;6.71;68.25
37892;BME280;45797;47.466;9.486;2023-02-14T14:42:18;97307.84;;;6.97;67.75
37892;BME280;45797;47.466;9.486;2023-02-14T14:47:27;97310.63;;;6.93;68.04
37892;BME280;45797;47.466;9.486;2023-02-14T14:52:47;97304.91;;;7.08;67.64
37892;BME280;45797;47.466;9.486;2023-02-14T14:57:54;97312.19;;;7.23;66.94
37892;BME280;45797;47.466;9.486;2023-02-14T15:13:50;97293.94;;;6.98;67.73
37892;BME280;45797;47.466;9.486;2023-02-14T15:18:57;97305.41;;;6.93;67.92
37892;BME280;45797;47.466;9.486;2023-02-14T15:24:00;97301.81;;;6.97;68.06
37892;BME280;45797;47.466;9.486;2023-02-14T15:29:06;97299.38;;;6.91;68.13
37892;BME280;45797;47.466;9.486;2023-02-14T15:34:06;97300.41;;;6.86;68.22
37892;BME280;45797;47.466;9.486;2023-02-14T15:39:12;97301.19;;;6.62;68.30
37892;BME280;45797;47.466;9.486;2023-02-14T15:44:21;97299.16;;;6.44;69.25
37892;BME280;45797;47.466;9.486;2023-02-14T15:49:32;97302.56;;;6.18;69.09
37892;BME280;45797;47.466;9.486;2023-02-14T15:54:41;97306.31;;;6.09;69.48
37892;BME280;45797;47.466;9.486;2023-02-14T15:59:42;97302.69;;;6.13;69.14
37892;BME280;45797;47.466;9.486;2023-02-14T16:04:43;97294.25;;;6.07;69.45
37892;BME280;45797;47.466;9.486;2023-02-14T16:10:26;97301.06;;;5.80;69.75
37892;BME280;45797;47.466;9.486;2023-02-14T16:16:05;97305.09;;;5.59;70.30
37892;BME280;45797;47.466;9.486;2023-02-14T16:21:30;97303.44;;;5.56;70.13
37892;BME280;45797;47.466;9.486;2023-02-14T16:26:41;97309.38;;;5.61;70.29
37892;BME280;45797;47.466;9.486;2023-02-14T16:31:53;97297.03;;;5.69;70.01
37892;BME280;45797;47.466;9.486;2023-02-14T16:36:55;97301.38;;;5.69;69.81
37892;BME280;45797;47.466;9.486;2023-02-14T16:42:03;97312.69;;;5.66;69.87
37892;BME280;45797;47.466;9.486;2023-02-14T16:47:17;97313.69;;;5.62;70.15
37892;BME280;45797;47.466;9.486;2023-02-14T16:52:21;97319.69;;;5.64;69.69
37892;BME280;45797;47.466;9.486;2023-02-14T16:57:35;97313.88;;;5.55;70.15
37892;BME280;45797;47.466;9.486;2023-02-14T17:02:46;97320.31;;;5.41;70.37
37892;BME280;45797;47.466;9.486;2023-02-14T17:07:53;97330.09;;;5.32;70.70
37892;BME280;45797;47.466;9.486;2023-02-14T17:12:57;97327.69;;;5.24;70.41
37892;BME280;45797;47.466;9.486;2023-02-14T17:18:09;97332.38;;;5.10;70.35
37892;BME280;45797;47.466;9.486;2023-02-14T17:23:17;97328.28;;;5.01;71.11
37892;BME280;45797;47.466;9.486;2023-02-14T17:28:26;97326.97;;;4.85;71.31
37892;BME280;45797;47.466;9.486;2023-02-14T17:33:28;97325.03;;;4.93;70.62
37892;BME280;45797;47.466;9.486;2023-02-14T17:38:30;97327.50;;;4.98;70.77
37892;BME280;45797;47.466;9.486;2023-02-14T17:43:32;97342.03;;;5.05;70.48
37892;BME280;45797;47.466;9.486;2023-02-14T17:48:36;97334.53;;;4.94;70.68
37892;BME280;45797;47.466;9.486;2023-02-14T17:53:36;97331.94;;;4.94;70.63
37892;BME280;45797;47.466;9.486;2023-02-14T17:58:39;97331.09;;;4.94;70.72
37892;BME280;45797;47.466;9.486;2023-02-14T18:03:52;97333.00;;;4.85;70.76
37892;BME280;45797;47.466;9.486;2023-02-14T18:08:53;97326.38;;;4.72;71.57
37892;BME280;45797;47.466;9.486;2023-02-14T18:13:57;97324.72;;;4.70;71.28
37892;BME280;45797;47.466;9.486;2023-02-14T18:19:04;97323.78;;;4.74;71.06
37892;BME280;45797;47.466;9.486;2023-02-14T18:24:07;97329.81;;;4.74;71.19
37892;BME280;45797;47.466;9.486;2023-02-14T18:29:15;97331.50;;;4.77;71.04
37892;BME280;45797;47.466;9.486;2023-02-14T18:34:25;97328.88;;;4.77;70.53
37892;BME280;45797;47.466;9.486;2023-02-14T18:44:48;97318.66;;;4.71;70.49
37892;BME280;45797;47.466;9.486;2023-02-14T18:49:50;97310.06;;;4.69;70.96
37892;BME280;45797;47.466;9.486;2023-02-14T18:54:54;97306.69;;;4.65;70.78
37892;BME280;45797;47.466;9.486;2023-02-14T18:59:58;97299.03;;;4.59;70.69
37892;BME280;45797;47.466;9.486;2023-02-14T19:04:59;97306.06;;;4.55;70.63
37892;BME280;45797;47.466;9.486;2023-02-14T19:10:00;97301.78;;;4.53;71.11
37892;BME280;45797;47.466;9.486;2023-02-14T19:15:01;97289.75;;;4.50;71.00
37892;BME280;45797;47.466;9.486;2023-02-14T19:20:09;97300.25;;;4.44;70.87
37892;BME280;45797;47.466;9.486;2023-02-14T19:25:12;97295.09;;;4.43;70.67
37892;BME280;45797;47.466;9.486;2023-02-14T19:30:39;97288.28;;;4.39;70.95
37892;BME280;45797;47.466;9.486;2023-02-14T19:35:41;97283.91;;;4.41;71.04
37892;BME280;45797;47.466;9.486;2023-02-14T19:40:44;97274.47;;;4.38;70.93
37892;BME280;45797;47.466;9.486;2023-02-14T19:45:46;97278.16;;;4.28;70.99
37892;BME280;45797;47.466;9.486;2023-02-14T19:50:46;97275.50;;;4.31;71.23
37892;BME280;45797;47.466;9.486;2023-02-14T19:55:47;97271.94;;;4.35;71.12
37892;BME280;45797;47.466;9.486;2023-02-14T20:00:59;97270.34;;;4.29;71.03
37892;BME280;45797;47.466;9.486;2023-02-14T20:06:01;97266.16;;;4.24;71.47
37892;BME280;45797;47.466;9.486;2023-02-14T20:11:01;97263.63;;;4.21;70.56
37892;BME280;45797;47.466;9.486;2023-02-14T20:16:02;97266.22;;;4.21;70.97
37892;BME280;45797;47.466;9.486;2023-02-14T20:21:03;97257.53;;;4.23;70.61
37892;BME280;45797;47.466;9.486;2023-02-14T20:26:03;97259.34;;;4.20;71.25
37892;BME280;45797;47.466;9.486;2023-02-14T20:31:08;97261.25;;;4.12;71.42
37892;BME280;45797;47.466;9.486;2023-02-14T20:36:08;97264.81;;;4.08;70.83
37892;BME280;45797;47.466;9.486;2023-02-14T20:41:12;97258.69;;;4.10;71.27
37892;BME280;45797;47.466;9.486;2023-02-14T20:46:15;97259.63;;;4.08;71.43
37892;BME280;45797;47.466;9.486;2023-02-14T20:51:18;97257.03;;;4.06;71.30
37892;BME280;45797;47.466;9.486;2023-02-14T20:56:20;97242.41;;;4.04;71.31
37892;BME280;45797;47.466;9.486;2023-02-14T21:01:26;97235.53;;;4.03;70.88
37892;BME280;45797;47.466;9.486;2023-02-14T21:06:30;97233.88;;;4.00;70.83
37892;BME280;45797;47.466;9.486;2023-02-14T21:11:37;97221.81;;;3.99;71.00
37892;BME280;45797;47.466;9.486;2023-02-14T21:16:38;97229.66;;;3.94;70.93
37892;BME280;45797;47.466;9.486;2023-02-14T21:21:39;97223.75;;;3.89;71.46
37892;BME280;45797;47.466;9.486;2023-02-14T21:26:39;97213.44;;;3.86;70.88
37892;BME280;45797;47.466;9.486;2023-02-14T21:31:41;97217.00;;;3.82;71.19
37892;BME280;45797;47.466;9.486;2023-02-14T21:36:43;97213.53;;;3.83;70.92
37892;BME280;45797;47.466;9.486;2023-02-14T21:41:44;97208.41;;;3.80;71.33
37892;BME280;45797;47.466;9.486;2023-02-14T21:46:44;97199.75;;;3.81;70.76
37892;BME280;45797;47.466;9.486;2023-02-14T21:51:46;97195.41;;;3.82;71.07
37892;BME280;45797;47.466;9.486;2023-02-14T21:56:57;97186.75;;;3.83;70.44
37892;BME280;45797;47.466;9.486;2023-02-14T22:01:58;97186.00;;;3.79;71.48
37892;BME280;45797;47.466;9.486;2023-02-14T22:07:08;97183.53;;;3.73;70.99
37892;BME280;45797;47.466;9.486;2023-02-14T22:12:16;97186.03;;;3.76;71.36
37892;BME280;45797;47.466;9.486;2023-02-14T22:17:17;97177.50;;;3.72;71.21
37892;BME280;45797;47.466;9.486;2023-02-14T22:22:17;97173.19;;;3.71;71.10
37892;BME280;45797;47.466;9.486;2023-02-14T22:27:20;97180.94;;;3.73;71.05
37892;BME280;45797;47.466;9.486;2023-02-14T22:32:21;97177.44;;;3.74;71.38
37892;BME280;45797;47.466;9.486;2023-02-14T22:37:21;97170.50;;;3.76;70.77
37892;BME280;45797;47.466;9.486;2023-02-14T22:42:22;97168.72;;;3.78;71.20
37892;BME280;45797;47.466;9.486;2023-02-14T22:47:23;97162.81;;;3.73;71.00
37892;BME280;45797;47.466;9.486;2023-02-14T22:52:26;97160.09;;;3.79;71.38
37892;BME280;45797;47.466;9.486;2023-02-14T22:57:27;97154.91;;;3.79;71.14
37892;BME280;45797;47.466;9.486;2023-02-14T23:08:47;97162.03;;;3.68;71.12
37892;BME280;45797;47.466;9.486;2023-02-14T23:13:49;97151.78;;;3.63;71.50
37892;BME280;45797;47.466;9.486;2023-02-14T23:19:15;97139.78;;;3.59;71.63
37892;BME280;45797;47.466;9.486;2023-02-14T23:24:36;97140.84;;;3.52;71.38
37892;BME280;45797;47.466;9.486;2023-02-14T23:29:38;97144.28;;;3.53;71.28
37892;BME280;45797;47.466;9.486;2023-02-14T23:34:40;97142.41;;;3.58;71.70
37892;BME280;45797;47.466;9.486;2023-02-14T23:39:53;97131.25;;;3.56;70.80
37892;BME280;45797;47.466;9.486;2023-02-14T23:44:54;97142.38;;;3.59;71.48
37892;BME280;45797;47.466;9.486;2023-02-14T23:50:16;97131.16;;;3.60;71.00
37892;BME280;45797;47.466;9.486;2023-02-14T23:55:29;97123.47;;;3.56;71.03
